KLCG

Wayne Municipal / Stan Morris Field Airport

Wayne, Nebraska, USA
METAR KLCG 141315Z AUTO 00000KT 5SM BR CLR 21/21 A2996 RMK AO2 T02110205
Observed Flight Rules
Aug-14 @ 13:15 UTC (28 minutes ago) Marginal Visual Flight Rules
Visibility Clouds Conditions
5 miles
  • Clear skies
  • Mist
Temperatures Readings
Current 21°C / 70°F
Dewpoint 21°C / 70°F
Humidity 100%
Altimeter 29.96" Hg
Pressure 1015 hPa
Elevation 436
METAR KLCG 141315Z AUTO 00000KT 5SM BR CLR 21/21 A2996 RMK AO2 T02110205
Observed Flight Rules
Aug-14 @ 13:15 UTC
(28 minutes ago)
MVFR
Clouds
  • Clear skies
Conditions
  • Mist
Temperature Dewpoint
21°C / 70°F 21°C / 70°F
Humidity Altimeter Pressure
100% 29.96" Hg 1015 hPa